Airfield :
LOGIN :

Register | Disclaimer

   EN    FR    IT 

 










Legend :    VFR   Marginal VFR   IFR   Intensive IFR   Very Intensive IFR
Visi :
Ceiling :
>= 8 km
>= 3000ft
5 to 8 km
1000 to 3000 ft
1500m to 5 km
500 to 1000 ft
800 to 1500m
200 to 500 ft
< 800m
< 200 ft
Symbols :   Thunderstorms  Fog  Heavy snow  Heavy precipitations  Wind > 20 kt
SIGMETs :     Misc.  Thunderstorms  Icing  Turbulence  Mountain Waves  Volcanic Ashes






- Airport Elevation : 124 ft
- IATA code : NHT


EGWU - RAF Northolt

CURRENT METAR :
  • 241350Z 20004KT CAVOK 11/09 Q0995 NOSIG RMK BLU BLU

EXPIRED METARs :
  • 241310Z 20007KT 9999 BKN042CB 11/09 Q0996 NOSIG RMK BLU BLU
  • 241240Z 25017G28KT 3000 TSRA OVC036CB 11/06 Q0996 TEMPO 9999 -SHRA RMK YLO1 TEMPO BLU
  • 241232Z 25012KT 4000 TSRA BKN040CB BKN120 13/07 Q0995 TEMPO 3000 +TSRA RMK GRN TEMPO YLO1
  • 241150Z 23015KT 9999 SCT032 SCT050 16/05 Q0995 TEMPO 7000 SHRA RMK BLU TEMPO WHT

TAF TAF EGWU
Valid from the 24 at 15:00 until the 25 at 09:00 UTC


241346Z 2415/2509 22012KT 9999 SCT042
TEMPO 2415/2422 7000 SHRA
PROB40
TEMPO 2415/2418 3000 +TSRA BKN030CB
PROB30
TEMPO 2418/2422 4000 SHRA BKN030CB
TEMPO 2503/2508 -RA BKN012



MET'MAP, your aeronautical weather chart ! - Copyright ORBIFLY December 2007 - Disclaimer

ORBIFLY MET'MAP TEAM :

Programming & Development : Alexandra Zaïnal
Concept & original design : Baudouin d'Aumeries
Assistance for programming : Marc-Olivier Méhu
Technical & hardware support : Manuel Goepfert

Contact : metmap@orbifly.com




SOURCES & CREDITS :

   NOAA